Etusivu
METAR-TAF:

METAR-TAF

Lentoasemat :

Lubbock, Texas, Yhdysvallat

Leveyspiiri: 33-40-03N, Pituuspiiri: 101-49-17W, korkeus merenpinnasta: 1000 m

Tämänhetkinen sää

Tämä raportti tehtiin 40 minuuttia sitten, kello 10.53 UTC
Tuuli 10 kn pohjoisesta
Lämpötila 4°C
Kosteus 81%
Ilmanpaine 1024 hPa
Näkyvyys: 16.1 km
selkeää

METAR: KLBB 061053Z 35010KT 10SM CLR 04/01 A3025 RMK AO2 SLP222 T00390011

Aika: 05:33 (11:33 UTC)

Sääennuste

Tämä raportti tehtiin 6 tuntia ja 13 minuuttia sitten, kello 05.20 UTC
Ennuste voimassa 06. päivästä klo 06 UTC - 07. päivään klo 06 UTC
Tuuli 11 kn pohjoisen/luoteesta
Näkyvyys: 10 km
selkeää
From 06. päivästä klo 1500 UTC
Tuuli 11 kn pohjoisesta
Näkyvyys: 10 km
Muutamia pilviä 25000 ft:n korkeudessa
From 06. päivästä klo 2100 UTC
Tuuli 4 kn eri suunnista
Näkyvyys: 10 km
Hajanaisia pilviä 25000 ft:n korkeudessa

TAF: KLBB 060520Z 0606/0706 33011KT P6SM SKC FM061500 36011KT P6SM FEW250 FM062100 VRB04KT P6SM SCT250

Säähavainnot ja -ennusteet yli 4000 lentoasemalta (METAR- ja TAF-raportit).

Käytössä olevat sääasemat on merkitty karttaan keltaisilla ja punaisilla pisteillä.

Aseta hiiri pisteen päälle nähdäksesi sääaseman nimen.

Klikkaa sitten nähdäksesi säähavainnot ja -ennusteet.

Kartan vaihtaminen: klikkaa mustalla rastilla varustettuja vihreitä pisteitä, niin voit zoomata sisään; viivalla varustettua vihreää pistettä, niin voit zoomata ulos tai vihreitä nuolia, niin pääset viereisille kartoille.


METAR-TAF: